sensor_id;sensor_type;location;lat;lon;timestamp;P1;durP1;ratioP1;P2;durP2;ratioP2
41705;SDS011;27385;51.096;17.190;2023-11-19T19:55:29;25.10;;;8.60;;
41705;SDS011;27385;51.096;17.190;2023-11-19T19:57:58;21.90;;;7.20;;
41705;SDS011;27385;51.096;17.190;2023-11-19T20:02:57;20.10;;;6.90;;
41705;SDS011;27385;51.096;17.190;2023-11-19T20:05:29;22.00;;;6.40;;
41705;SDS011;27385;51.096;17.190;2023-11-19T20:08:00;24.50;;;5.90;;
41705;SDS011;27385;51.096;17.190;2023-11-19T20:10:32;18.70;;;4.80;;
41705;SDS011;27385;51.096;17.190;2023-11-19T20:13:02;18.40;;;5.30;;
41705;SDS011;27385;51.096;17.190;2023-11-19T20:15:36;21.70;;;6.40;;
41705;SDS011;27385;51.096;17.190;2023-11-19T20:18:18;24.60;;;8.00;;
41705;SDS011;27385;51.096;17.190;2023-11-19T20:20:51;28.60;;;8.60;;
41705;SDS011;27385;51.096;17.190;2023-11-19T20:23:23;28.10;;;10.60;;
41705;SDS011;27385;51.096;17.190;2023-11-19T20:25:56;28.80;;;10.90;;
41705;SDS011;27385;51.096;17.190;2023-11-19T20:28:26;27.50;;;12.30;;
41705;SDS011;27385;51.096;17.190;2023-11-19T20:30:56;31.30;;;11.20;;
41705;SDS011;27385;51.096;17.190;2023-11-19T20:33:25;24.10;;;7.80;;
41705;SDS011;27385;51.096;17.190;2023-11-19T20:35:55;23.00;;;7.80;;
41705;SDS011;27385;51.096;17.190;2023-11-19T20:38:35;20.40;;;6.40;;
41705;SDS011;27385;51.096;17.190;2023-11-19T20:41:04;23.40;;;7.60;;
41705;SDS011;27385;51.096;17.190;2023-11-19T20:43:36;26.60;;;10.50;;
41705;SDS011;27385;51.096;17.190;2023-11-19T20:49:09;31.30;;;11.00;;
41705;SDS011;27385;51.096;17.190;2023-11-19T20:51:39;35.00;;;11.20;;
41705;SDS011;27385;51.096;17.190;2023-11-19T20:57:02;34.20;;;7.40;;
41705;SDS011;27385;51.096;17.190;2023-11-19T20:59:31;23.20;;;7.30;;
41705;SDS011;27385;51.096;17.190;2023-11-19T21:02:45;21.50;;;5.10;;
41705;SDS011;27385;51.096;17.190;2023-11-19T21:05:38;19.80;;;4.50;;
41705;SDS011;27385;51.096;17.190;2023-11-19T21:08:31;23.10;;;4.30;;
41705;SDS011;27385;51.096;17.190;2023-11-19T21:11:14;20.10;;;3.80;;
41705;SDS011;27385;51.096;17.190;2023-11-19T21:14:21;13.40;;;3.10;;
41705;SDS011;27385;51.096;17.190;2023-11-19T21:16:55;17.40;;;2.70;;
41705;SDS011;27385;51.096;17.190;2023-11-19T21:19:49;18.90;;;2.80;;
41705;SDS011;27385;51.096;17.190;2023-11-19T21:22:40;16.00;;;3.50;;
41705;SDS011;27385;51.096;17.190;2023-11-19T21:25:37;15.90;;;2.80;;
41705;SDS011;27385;51.096;17.190;2023-11-19T21:28:08;16.90;;;2.30;;
41705;SDS011;27385;51.096;17.190;2023-11-19T21:30:38;20.20;;;2.20;;
41705;SDS011;27385;51.096;17.190;2023-11-19T21:33:10;18.60;;;2.20;;
41705;SDS011;27385;51.096;17.190;2023-11-19T21:35:47;13.60;;;2.80;;
41705;SDS011;27385;51.096;17.190;2023-11-19T21:38:26;15.00;;;1.50;;
41705;SDS011;27385;51.096;17.190;2023-11-19T21:41:28;15.40;;;2.40;;
41705;SDS011;27385;51.096;17.190;2023-11-19T21:44:04;9.60;;;1.70;;
41705;SDS011;27385;51.096;17.190;2023-11-19T21:47:33;13.40;;;1.30;;
41705;SDS011;27385;51.096;17.190;2023-11-19T21:50:13;10.70;;;1.50;;
41705;SDS011;27385;51.096;17.190;2023-11-19T21:52:49;15.80;;;2.00;;
41705;SDS011;27385;51.096;17.190;2023-11-19T21:55:48;13.40;;;1.50;;
41705;SDS011;27385;51.096;17.190;2023-11-19T21:59:14;12.10;;;1.30;;
41705;SDS011;27385;51.096;17.190;2023-11-19T22:01:54;13.20;;;1.50;;
41705;SDS011;27385;51.096;17.190;2023-11-19T22:05:26;12.70;;;1.70;;
41705;SDS011;27385;51.096;17.190;2023-11-19T22:08:57;13.60;;;1.70;;
41705;SDS011;27385;51.096;17.190;2023-11-19T22:12:17;12.30;;;1.40;;
41705;SDS011;27385;51.096;17.190;2023-11-19T22:15:03;15.10;;;2.30;;
41705;SDS011;27385;51.096;17.190;2023-11-19T22:17:46;13.70;;;1.40;;
41705;SDS011;27385;51.096;17.190;2023-11-19T22:24:27;7.40;;;1.30;;
41705;SDS011;27385;51.096;17.190;2023-11-19T22:27:22;13.90;;;1.90;;
41705;SDS011;27385;51.096;17.190;2023-11-19T22:29:53;17.20;;;1.60;;
41705;SDS011;27385;51.096;17.190;2023-11-19T22:32:25;12.80;;;1.60;;
41705;SDS011;27385;51.096;17.190;2023-11-19T22:35:05;14.90;;;1.50;;
41705;SDS011;27385;51.096;17.190;2023-11-19T22:37:35;20.70;;;1.60;;
41705;SDS011;27385;51.096;17.190;2023-11-19T22:40:07;11.70;;;1.80;;
41705;SDS011;27385;51.096;17.190;2023-11-19T22:43:26;11.20;;;2.00;;
41705;SDS011;27385;51.096;17.190;2023-11-19T22:45:56;21.90;;;3.10;;
41705;SDS011;27385;51.096;17.190;2023-11-19T22:48:28;20.10;;;2.70;;
41705;SDS011;27385;51.096;17.190;2023-11-19T22:51:00;24.10;;;3.00;;
41705;SDS011;27385;51.096;17.190;2023-11-19T22:53:30;22.90;;;4.20;;
41705;SDS011;27385;51.096;17.190;2023-11-19T22:56:00;20.00;;;4.30;;
41705;SDS011;27385;51.096;17.190;2023-11-19T22:58:31;27.30;;;4.10;;
41705;SDS011;27385;51.096;17.190;2023-11-19T23:01:16;18.70;;;2.80;;
41705;SDS011;27385;51.096;17.190;2023-11-19T23:06:15;14.80;;;2.40;;
41705;SDS011;27385;51.096;17.190;2023-11-19T23:08:46;18.90;;;2.60;;
41705;SDS011;27385;51.096;17.190;2023-11-19T23:11:29;16.60;;;3.50;;
41705;SDS011;27385;51.096;17.190;2023-11-19T23:14:00;15.90;;;2.20;;
41705;SDS011;27385;51.096;17.190;2023-11-19T23:16:31;15.80;;;2.30;;
41705;SDS011;27385;51.096;17.190;2023-11-19T23:19:05;15.60;;;2.30;;
41705;SDS011;27385;51.096;17.190;2023-11-19T23:21:36;19.40;;;3.00;;
41705;SDS011;27385;51.096;17.190;2023-11-19T23:24:10;19.60;;;2.80;;
41705;SDS011;27385;51.096;17.190;2023-11-19T23:26:40;17.60;;;3.10;;
41705;SDS011;27385;51.096;17.190;2023-11-19T23:29:14;18.30;;;3.00;;
41705;SDS011;27385;51.096;17.190;2023-11-19T23:32:05;19.40;;;3.10;;
41705;SDS011;27385;51.096;17.190;2023-11-19T23:35:06;21.20;;;3.20;;
41705;SDS011;27385;51.096;17.190;2023-11-19T23:37:37;14.80;;;2.30;;
41705;SDS011;27385;51.096;17.190;2023-11-19T23:40:11;15.10;;;2.60;;
41705;SDS011;27385;51.096;17.190;2023-11-19T23:42:42;23.80;;;3.20;;
41705;SDS011;27385;51.096;17.190;2023-11-19T23:45:17;12.50;;;2.30;;
41705;SDS011;27385;51.096;17.190;2023-11-19T23:47:48;17.00;;;2.60;;
41705;SDS011;27385;51.096;17.190;2023-11-19T23:50:38;13.00;;;2.10;;
41705;SDS011;27385;51.096;17.190;2023-11-19T23:53:09;15.70;;;2.70;;
41705;SDS011;27385;51.096;17.190;2023-11-19T23:55:41;20.30;;;2.00;;
